KLM257 EHAM-LFPG
Flight info
| Callsign | KLM257 |
|---|---|
| Flight time | 0h 55m |
| Altitude | 29000 |
| Route | WOODY N872 DENOX DCT SISGA DCT DELOM DCT MOPIL |
| Aircraft | A20N/M-SDE2E3FGHIRWXY/LB1 |
Departure
| Time | 2026-05-08 19:49 |
|---|---|
| Airport | Amsterdam Airport Schiphol (EHAM) |
Arrival
| Time | 2026-05-08 20:44 |
|---|---|
| Airport | Charles de Gaulle International Airport (LFPG) |
| Time | Latitude | Longitude | Altitude | Speed | Heading |
|---|---|---|---|---|---|
| 2026-05-08 18:54 | 52.30706 | 4.77216 | -1 ft | 0 kts | 3° |
| 2026-05-08 19:34 | 52.30697 | 4.77216 | -2 ft | 2 kts | 3° |
| 2026-05-08 19:35 | 52.30681 | 4.77214 | -2 ft | 2 kts | 4° |
| 2026-05-08 19:35 | 52.30664 | 4.77212 | -2 ft | 2 kts | 4° |
| 2026-05-08 19:35 | 52.30650 | 4.77200 | -1 ft | 2 kts | 73° |
| 2026-05-08 19:35 | 52.30648 | 4.77173 | -1 ft | 2 kts | 90° |
| 2026-05-08 19:36 | 52.30648 | 4.77153 | -1 ft | 1 kts | 94° |
| 2026-05-08 19:36 | 52.30648 | 4.77151 | -1 ft | 0 kts | 94° |
| 2026-05-08 19:39 | 52.30648 | 4.77157 | -1 ft | 2 kts | 94° |
| 2026-05-08 19:39 | 52.30647 | 4.77184 | -1 ft | 5 kts | 94° |
| 2026-05-08 19:39 | 52.30610 | 4.77272 | -1 ft | 10 kts | 155° |
| 2026-05-08 19:40 | 52.30542 | 4.77336 | -1 ft | 13 kts | 164° |
| 2026-05-08 19:40 | 52.30475 | 4.77252 | -2 ft | 15 kts | 247° |
| 2026-05-08 19:40 | 52.30486 | 4.77151 | -1 ft | 12 kts | 306° |
| 2026-05-08 19:40 | 52.30484 | 4.77013 | -1 ft | 15 kts | 238° |
| 2026-05-08 19:41 | 52.30423 | 4.76855 | -1 ft | 18 kts | 238° |
| 2026-05-08 19:41 | 52.30352 | 4.76668 | -1 ft | 21 kts | 238° |
| 2026-05-08 19:41 | 52.30269 | 4.76450 | -1 ft | 24 kts | 239° |
| 2026-05-08 19:41 | 52.30178 | 4.76214 | -1 ft | 26 kts | 238° |
| 2026-05-08 19:42 | 52.30080 | 4.75959 | -1 ft | 25 kts | 238° |
| 2026-05-08 19:42 | 52.29983 | 4.75706 | -1 ft | 27 kts | 237° |
| 2026-05-08 19:42 | 52.29880 | 4.75438 | -1 ft | 27 kts | 237° |
| 2026-05-08 19:42 | 52.29837 | 4.75217 | -1 ft | 20 kts | 290° |
| 2026-05-08 19:43 | 52.29927 | 4.75038 | -1 ft | 22 kts | 311° |
| 2026-05-08 19:43 | 52.30031 | 4.74845 | -1 ft | 24 kts | 311° |
| 2026-05-08 19:43 | 52.30137 | 4.74650 | 9 ft | 20 kts | 311° |
| 2026-05-08 19:43 | 52.30237 | 4.74465 | 10 ft | 23 kts | 311° |
| 2026-05-08 19:44 | 52.30336 | 4.74279 | -2 ft | 10 kts | 311° |
| 2026-05-08 19:44 | 52.30366 | 4.74213 | -1 ft | 9 kts | 298° |
| 2026-05-08 19:44 | 52.30373 | 4.74151 | -1 ft | 0 kts | 261° |
| 2026-05-08 19:45 | 52.30368 | 4.74124 | -1 ft | 5 kts | 250° |
| 2026-05-08 19:45 | 52.30339 | 4.74058 | -1 ft | 9 kts | 226° |
| 2026-05-08 19:45 | 52.30279 | 4.73982 | -1 ft | 13 kts | 214° |
| 2026-05-08 19:45 | 52.30198 | 4.73880 | -2 ft | 15 kts | 227° |
| 2026-05-08 19:46 | 52.30210 | 4.73745 | -3 ft | 9 kts | 326° |
| 2026-05-08 19:46 | 52.30250 | 4.73740 | -4 ft | 0 kts | 4° |
| 2026-05-08 19:48 | 52.30276 | 4.73743 | -4 ft | 23 kts | 4° |
| 2026-05-08 19:48 | 52.30694 | 4.73784 | -2 ft | 93 kts | 3° |
| 2026-05-08 19:48 | 52.31514 | 4.73863 | -3 ft | 142 kts | 4° |
| 2026-05-08 19:48 | 52.32591 | 4.73977 | 247 ft | 160 kts | 5° |
| 2026-05-08 19:49 | 52.33656 | 4.74358 | 857 ft | 153 kts | 20° |
| 2026-05-08 19:49 | 52.34654 | 4.74963 | 1485 ft | 153 kts | 24° |
| 2026-05-08 19:49 | 52.35670 | 4.75632 | 1899 ft | 168 kts | 26° |
| 2026-05-08 19:49 | 52.36653 | 4.76800 | 2252 ft | 185 kts | 50° |
| 2026-05-08 19:50 | 52.37277 | 4.78751 | 2642 ft | 205 kts | 77° |
| 2026-05-08 19:50 | 52.37237 | 4.81166 | 3159 ft | 223 kts | 105° |
| 2026-05-08 19:50 | 52.36552 | 4.83465 | 4096 ft | 227 kts | 133° |
| 2026-05-08 19:50 | 52.35263 | 4.84837 | 4991 ft | 232 kts | 164° |
| 2026-05-08 19:51 | 52.33608 | 4.85059 | 5893 ft | 239 kts | 182° |
| 2026-05-08 19:51 | 52.31851 | 4.84980 | 6477 ft | 262 kts | 183° |
| 2026-05-08 19:51 | 52.30001 | 4.84891 | 7184 ft | 273 kts | 183° |
| 2026-05-08 19:51 | 52.28082 | 4.84820 | 8139 ft | 277 kts | 182° |
| 2026-05-08 19:52 | 52.26146 | 4.84766 | 9072 ft | 282 kts | 181° |
| 2026-05-08 19:52 | 52.24178 | 4.84721 | 10017 ft | 287 kts | 181° |
| 2026-05-08 19:52 | 52.22141 | 4.84680 | 10690 ft | 301 kts | 181° |
| 2026-05-08 19:52 | 52.19959 | 4.84637 | 11034 ft | 324 kts | 181° |
| 2026-05-08 19:53 | 52.17657 | 4.84593 | 11514 ft | 339 kts | 181° |
| 2026-05-08 19:53 | 52.15282 | 4.84548 | 12386 ft | 342 kts | 181° |
| 2026-05-08 19:53 | 52.12907 | 4.84501 | 12887 ft | 346 kts | 181° |
| 2026-05-08 19:53 | 52.10482 | 4.84453 | 13083 ft | 347 kts | 181° |
| 2026-05-08 19:54 | 52.08083 | 4.84406 | 13128 ft | 347 kts | 181° |
| 2026-05-08 19:54 | 52.05664 | 4.84358 | 13125 ft | 347 kts | 181° |
| 2026-05-08 19:54 | 52.03275 | 4.84132 | 13124 ft | 346 kts | 189° |
| 2026-05-08 19:54 | 52.00903 | 4.83228 | 13125 ft | 346 kts | 199° |
| 2026-05-08 19:55 | 51.98723 | 4.81712 | 13123 ft | 345 kts | 206° |
| 2026-05-08 19:55 | 51.96556 | 4.79982 | 13214 ft | 348 kts | 206° |
| 2026-05-08 19:55 | 51.94370 | 4.78255 | 13923 ft | 350 kts | 206° |
| 2026-05-08 19:55 | 51.92282 | 4.76614 | 14731 ft | 351 kts | 206° |
| 2026-05-08 19:56 | 51.90068 | 4.74881 | 15463 ft | 355 kts | 206° |
| 2026-05-08 19:56 | 51.87839 | 4.73140 | 16202 ft | 359 kts | 206° |
| 2026-05-08 19:56 | 51.85569 | 4.71368 | 16924 ft | 363 kts | 206° |
| 2026-05-08 19:56 | 51.83257 | 4.69566 | 17653 ft | 367 kts | 206° |
| 2026-05-08 19:57 | 51.80968 | 4.67783 | 18357 ft | 371 kts | 206° |
| 2026-05-08 19:57 | 51.78642 | 4.65974 | 18969 ft | 375 kts | 206° |
| 2026-05-08 19:57 | 51.76272 | 4.64135 | 19574 ft | 379 kts | 206° |
| 2026-05-08 19:57 | 51.73870 | 4.62272 | 20131 ft | 384 kts | 206° |
| 2026-05-08 19:58 | 51.71441 | 4.60391 | 20704 ft | 388 kts | 206° |
| 2026-05-08 19:58 | 51.69014 | 4.58514 | 21273 ft | 393 kts | 206° |
| 2026-05-08 19:58 | 51.66517 | 4.56584 | 21820 ft | 397 kts | 206° |
| 2026-05-08 19:58 | 51.64027 | 4.54661 | 22396 ft | 401 kts | 206° |
| 2026-05-08 19:59 | 51.61506 | 4.52716 | 22954 ft | 405 kts | 206° |
| 2026-05-08 19:59 | 51.58959 | 4.50754 | 23519 ft | 409 kts | 206° |
| 2026-05-08 19:59 | 51.56362 | 4.48755 | 23997 ft | 414 kts | 206° |
| 2026-05-08 19:59 | 51.53754 | 4.46751 | 24434 ft | 418 kts | 206° |
| 2026-05-08 20:00 | 51.51130 | 4.44737 | 24858 ft | 423 kts | 206° |
| 2026-05-08 20:00 | 51.48449 | 4.42683 | 25290 ft | 427 kts | 206° |
| 2026-05-08 20:00 | 51.45756 | 4.40622 | 25701 ft | 431 kts | 207° |
| 2026-05-08 20:00 | 51.43049 | 4.38553 | 26110 ft | 435 kts | 207° |
| 2026-05-08 20:01 | 51.40316 | 4.36466 | 26507 ft | 439 kts | 207° |
| 2026-05-08 20:01 | 51.37534 | 4.34346 | 26901 ft | 443 kts | 207° |
| 2026-05-08 20:01 | 51.34757 | 4.32236 | 27288 ft | 447 kts | 207° |
| 2026-05-08 20:01 | 51.31896 | 4.30067 | 27660 ft | 451 kts | 207° |
| 2026-05-08 20:02 | 51.29070 | 4.27923 | 28046 ft | 455 kts | 207° |
| 2026-05-08 20:02 | 51.26214 | 4.25756 | 28405 ft | 459 kts | 207° |
| 2026-05-08 20:02 | 51.23308 | 4.23552 | 28737 ft | 462 kts | 207° |
| 2026-05-08 20:02 | 51.20385 | 4.21339 | 29031 ft | 466 kts | 207° |
| 2026-05-08 20:03 | 51.14738 | 4.17398 | 29124 ft | 469 kts | 201° |
| 2026-05-08 20:03 | 51.08605 | 4.14059 | 29125 ft | 469 kts | 200° |
| 2026-05-08 20:04 | 51.02396 | 4.10671 | 29114 ft | 469 kts | 201° |
| 2026-05-08 20:04 | 50.96216 | 4.07297 | 29117 ft | 469 kts | 201° |
| 2026-05-08 20:05 | 50.90033 | 4.04125 | 29111 ft | 471 kts | 194° |
| 2026-05-08 20:05 | 50.83519 | 4.03218 | 29113 ft | 474 kts | 176° |
| 2026-05-08 20:06 | 50.76930 | 4.03987 | 29110 ft | 475 kts | 176° |
| 2026-05-08 20:06 | 50.70327 | 4.04731 | 29107 ft | 476 kts | 176° |
| 2026-05-08 20:07 | 50.63713 | 4.05459 | 29104 ft | 476 kts | 176° |
| 2026-05-08 20:07 | 50.57087 | 4.06184 | 29102 ft | 477 kts | 176° |
| 2026-05-08 20:08 | 50.50464 | 4.06908 | 29101 ft | 477 kts | 176° |
| 2026-05-08 20:08 | 50.43840 | 4.07630 | 29103 ft | 477 kts | 176° |
| 2026-05-08 20:09 | 50.37226 | 4.08349 | 29103 ft | 478 kts | 176° |
| 2026-05-08 20:09 | 50.30586 | 4.09069 | 29099 ft | 479 kts | 176° |
| 2026-05-08 20:10 | 50.23936 | 4.09791 | 29102 ft | 479 kts | 176° |
| 2026-05-08 20:10 | 50.17317 | 4.10514 | 29097 ft | 479 kts | 176° |
| 2026-05-08 20:11 | 50.10704 | 4.11313 | 29099 ft | 471 kts | 176° |
| 2026-05-08 20:11 | 50.04266 | 4.12113 | 29099 ft | 465 kts | 176° |
| 2026-05-08 20:12 | 49.97819 | 4.12927 | 29097 ft | 465 kts | 176° |
| 2026-05-08 20:12 | 49.91357 | 4.12769 | 29095 ft | 463 kts | 189° |
| 2026-05-08 20:13 | 49.85004 | 4.11537 | 28965 ft | 459 kts | 189° |
| 2026-05-08 20:13 | 49.81834 | 4.10924 | 28565 ft | 456 kts | 189° |
| 2026-05-08 20:13 | 49.78719 | 4.10326 | 28094 ft | 451 kts | 189° |
| 2026-05-08 20:14 | 49.75600 | 4.09732 | 27575 ft | 446 kts | 189° |
| 2026-05-08 20:14 | 49.72529 | 4.09149 | 27066 ft | 441 kts | 188° |
| 2026-05-08 20:14 | 49.69533 | 4.08582 | 26577 ft | 436 kts | 188° |
| 2026-05-08 20:14 | 49.66546 | 4.08017 | 26072 ft | 432 kts | 188° |
| 2026-05-08 20:15 | 49.63573 | 4.07414 | 25571 ft | 426 kts | 193° |
| 2026-05-08 20:15 | 49.60802 | 4.06023 | 25065 ft | 418 kts | 208° |
| 2026-05-08 20:15 | 49.58396 | 4.03579 | 24548 ft | 411 kts | 224° |
| 2026-05-08 20:15 | 49.56563 | 4.00270 | 24208 ft | 400 kts | 239° |
| 2026-05-08 20:16 | 49.55112 | 3.96647 | 24102 ft | 399 kts | 242° |
| 2026-05-08 20:16 | 49.53697 | 3.92943 | 23803 ft | 399 kts | 242° |
| 2026-05-08 20:16 | 49.52264 | 3.89291 | 23278 ft | 399 kts | 240° |
| 2026-05-08 20:16 | 49.50808 | 3.85710 | 22777 ft | 395 kts | 240° |
| 2026-05-08 20:17 | 49.49328 | 3.82157 | 22283 ft | 390 kts | 239° |
| 2026-05-08 20:17 | 49.47993 | 3.78590 | 21868 ft | 385 kts | 246° |
| 2026-05-08 20:17 | 49.46986 | 3.74779 | 21330 ft | 382 kts | 254° |
| 2026-05-08 20:17 | 49.46301 | 3.70885 | 20816 ft | 378 kts | 257° |
| 2026-05-08 20:18 | 49.45661 | 3.66993 | 20314 ft | 374 kts | 257° |
| 2026-05-08 20:18 | 49.45014 | 3.63124 | 20075 ft | 370 kts | 257° |
| 2026-05-08 20:18 | 49.44373 | 3.59331 | 19654 ft | 370 kts | 256° |
| 2026-05-08 20:18 | 49.43722 | 3.55490 | 19190 ft | 368 kts | 256° |
| 2026-05-08 20:19 | 49.43114 | 3.51733 | 18709 ft | 365 kts | 257° |
| 2026-05-08 20:19 | 49.42544 | 3.47930 | 18272 ft | 361 kts | 257° |
| 2026-05-08 20:19 | 49.42000 | 3.44182 | 18106 ft | 358 kts | 257° |
| 2026-05-08 20:19 | 49.41456 | 3.40444 | 18076 ft | 362 kts | 257° |
| 2026-05-08 20:20 | 49.40934 | 3.36867 | 18002 ft | 360 kts | 257° |
| 2026-05-08 20:20 | 49.40383 | 3.33097 | 17689 ft | 358 kts | 257° |
| 2026-05-08 20:20 | 49.39845 | 3.29404 | 17251 ft | 355 kts | 257° |
| 2026-05-08 20:20 | 49.39305 | 3.25697 | 16736 ft | 352 kts | 257° |
| 2026-05-08 20:21 | 49.38778 | 3.22074 | 16280 ft | 348 kts | 257° |
| 2026-05-08 20:21 | 49.38252 | 3.18463 | 16103 ft | 345 kts | 257° |
| 2026-05-08 20:21 | 49.37728 | 3.14863 | 16080 ft | 350 kts | 257° |
| 2026-05-08 20:21 | 49.37196 | 3.11207 | 16079 ft | 349 kts | 257° |
| 2026-05-08 20:22 | 49.36668 | 3.07586 | 16078 ft | 349 kts | 257° |
| 2026-05-08 20:22 | 49.36136 | 3.03929 | 16077 ft | 349 kts | 257° |
| 2026-05-08 20:22 | 49.35610 | 3.00314 | 16078 ft | 349 kts | 257° |
| 2026-05-08 20:22 | 49.35258 | 2.97889 | 16075 ft | 349 kts | 257° |
| 2026-05-08 20:23 | 49.34555 | 2.93052 | 16077 ft | 349 kts | 257° |
| 2026-05-08 20:23 | 49.34028 | 2.89444 | 16078 ft | 349 kts | 257° |
| 2026-05-08 20:23 | 49.33498 | 2.85808 | 16079 ft | 349 kts | 257° |
| 2026-05-08 20:23 | 49.32962 | 2.82146 | 16076 ft | 349 kts | 257° |
| 2026-05-08 20:24 | 49.32436 | 2.78564 | 16033 ft | 347 kts | 257° |
| 2026-05-08 20:24 | 49.31906 | 2.74955 | 15743 ft | 345 kts | 257° |
| 2026-05-08 20:24 | 49.31376 | 2.71353 | 15319 ft | 343 kts | 257° |
| 2026-05-08 20:24 | 49.30859 | 2.67828 | 14876 ft | 340 kts | 257° |
| 2026-05-08 20:25 | 49.30339 | 2.64285 | 14421 ft | 337 kts | 257° |
| 2026-05-08 20:25 | 49.29833 | 2.60826 | 13978 ft | 334 kts | 257° |
| 2026-05-08 20:25 | 49.29390 | 2.57793 | 13544 ft | 332 kts | 257° |
| 2026-05-08 20:25 | 49.28889 | 2.54389 | 13023 ft | 330 kts | 257° |
| 2026-05-08 20:26 | 49.28380 | 2.50954 | 12520 ft | 328 kts | 257° |
| 2026-05-08 20:26 | 49.27877 | 2.47581 | 12031 ft | 325 kts | 257° |
| 2026-05-08 20:26 | 49.27372 | 2.44218 | 11550 ft | 323 kts | 257° |
| 2026-05-08 20:26 | 49.26864 | 2.40865 | 11203 ft | 318 kts | 257° |
| 2026-05-08 20:27 | 49.26363 | 2.37571 | 11081 ft | 322 kts | 257° |
| 2026-05-08 20:27 | 49.25850 | 2.34216 | 11077 ft | 322 kts | 257° |
| 2026-05-08 20:27 | 49.25340 | 2.30897 | 11069 ft | 322 kts | 257° |
| 2026-05-08 20:27 | 49.24825 | 2.27551 | 11079 ft | 322 kts | 257° |
| 2026-05-08 20:28 | 49.24307 | 2.24195 | 11080 ft | 322 kts | 257° |
| 2026-05-08 20:28 | 49.23798 | 2.20906 | 11006 ft | 320 kts | 257° |
| 2026-05-08 20:28 | 49.23278 | 2.17573 | 10675 ft | 319 kts | 257° |
| 2026-05-08 20:28 | 49.22764 | 2.14304 | 10254 ft | 318 kts | 257° |
| 2026-05-08 20:29 | 49.22239 | 2.10997 | 9758 ft | 317 kts | 257° |
| 2026-05-08 20:29 | 49.21727 | 2.07771 | 9267 ft | 315 kts | 257° |
| 2026-05-08 20:29 | 49.21216 | 2.04523 | 8756 ft | 314 kts | 257° |
| 2026-05-08 20:29 | 49.20707 | 2.01273 | 8295 ft | 311 kts | 257° |
| 2026-05-08 20:30 | 49.20208 | 1.98067 | 8121 ft | 309 kts | 257° |
| 2026-05-08 20:30 | 49.19716 | 1.94883 | 8073 ft | 310 kts | 257° |
| 2026-05-08 20:30 | 49.19230 | 1.91738 | 8072 ft | 294 kts | 257° |
| 2026-05-08 20:30 | 49.18773 | 1.88772 | 8073 ft | 277 kts | 257° |
| 2026-05-08 20:31 | 49.18348 | 1.86027 | 8072 ft | 261 kts | 257° |
| 2026-05-08 20:31 | 49.17688 | 1.83554 | 8065 ft | 244 kts | 232° |
| 2026-05-08 20:31 | 49.16556 | 1.81634 | 8071 ft | 248 kts | 226° |
| 2026-05-08 20:31 | 49.15361 | 1.79715 | 8079 ft | 246 kts | 226° |
| 2026-05-08 20:32 | 49.14190 | 1.77838 | 8072 ft | 245 kts | 226° |
| 2026-05-08 20:32 | 49.12813 | 1.76340 | 8033 ft | 244 kts | 201° |
| 2026-05-08 20:32 | 49.11197 | 1.75562 | 7819 ft | 244 kts | 197° |
| 2026-05-08 20:32 | 49.09570 | 1.74834 | 7526 ft | 243 kts | 197° |
| 2026-05-08 20:33 | 49.07967 | 1.74117 | 7221 ft | 242 kts | 196° |
| 2026-05-08 20:33 | 49.06317 | 1.73815 | 7080 ft | 239 kts | 171° |
| 2026-05-08 20:33 | 49.05221 | 1.74165 | 7074 ft | 245 kts | 167° |
| 2026-05-08 20:33 | 49.03566 | 1.74780 | 7071 ft | 242 kts | 166° |
| 2026-05-08 20:34 | 49.01925 | 1.75393 | 7071 ft | 242 kts | 166° |
| 2026-05-08 20:34 | 49.00590 | 1.76204 | 7072 ft | 243 kts | 145° |
| 2026-05-08 20:34 | 48.98852 | 1.80540 | 7073 ft | 246 kts | 111° |
| 2026-05-08 20:35 | 48.98239 | 1.82963 | 7070 ft | 245 kts | 111° |
| 2026-05-08 20:35 | 48.97635 | 1.85361 | 6953 ft | 244 kts | 111° |
| 2026-05-08 20:35 | 48.97027 | 1.87787 | 6682 ft | 243 kts | 111° |
| 2026-05-08 20:35 | 48.96445 | 1.90211 | 6376 ft | 242 kts | 105° |
| 2026-05-08 20:36 | 48.96341 | 1.92733 | 6069 ft | 241 kts | 92° |
| 2026-05-08 20:36 | 48.96244 | 1.95241 | 5793 ft | 238 kts | 94° |
| 2026-05-08 20:36 | 48.96228 | 1.97723 | 5524 ft | 236 kts | 89° |
| 2026-05-08 20:36 | 48.96317 | 2.00194 | 5363 ft | 227 kts | 86° |
| 2026-05-08 20:37 | 48.96436 | 2.02538 | 5110 ft | 222 kts | 86° |
| 2026-05-08 20:37 | 48.96557 | 2.04828 | 5003 ft | 216 kts | 86° |
| 2026-05-08 20:37 | 48.96681 | 2.07178 | 4998 ft | 224 kts | 86° |
| 2026-05-08 20:37 | 48.96805 | 2.09517 | 4994 ft | 222 kts | 86° |
| 2026-05-08 20:38 | 48.96929 | 2.11867 | 4996 ft | 222 kts | 86° |
| 2026-05-08 20:38 | 48.97051 | 2.14169 | 4998 ft | 213 kts | 86° |
| 2026-05-08 20:38 | 48.97166 | 2.16325 | 4989 ft | 197 kts | 86° |
| 2026-05-08 20:38 | 48.97272 | 2.18338 | 4986 ft | 183 kts | 86° |
| 2026-05-08 20:39 | 48.97376 | 2.20318 | 4968 ft | 193 kts | 86° |
| 2026-05-08 20:39 | 48.97484 | 2.22373 | 4770 ft | 193 kts | 86° |
| 2026-05-08 20:39 | 48.97591 | 2.24391 | 4506 ft | 192 kts | 86° |
| 2026-05-08 20:39 | 48.97698 | 2.26405 | 4249 ft | 192 kts | 86° |
| 2026-05-08 20:40 | 48.97806 | 2.28440 | 3985 ft | 191 kts | 86° |
| 2026-05-08 20:40 | 48.97912 | 2.30455 | 3732 ft | 190 kts | 86° |
| 2026-05-08 20:40 | 48.98017 | 2.32431 | 3484 ft | 189 kts | 85° |
| 2026-05-08 20:40 | 48.98121 | 2.34406 | 3229 ft | 188 kts | 85° |
| 2026-05-08 20:41 | 48.98227 | 2.36406 | 2973 ft | 188 kts | 85° |
| 2026-05-08 20:41 | 48.98331 | 2.38373 | 2726 ft | 187 kts | 85° |
| 2026-05-08 20:41 | 48.98436 | 2.40344 | 2480 ft | 185 kts | 85° |
| 2026-05-08 20:41 | 48.98535 | 2.42228 | 2245 ft | 173 kts | 85° |
| 2026-05-08 20:42 | 48.98628 | 2.43987 | 2004 ft | 158 kts | 85° |
| 2026-05-08 20:42 | 48.98712 | 2.45586 | 1803 ft | 150 kts | 84° |
| 2026-05-08 20:42 | 48.98794 | 2.47130 | 1604 ft | 141 kts | 85° |
| 2026-05-08 20:42 | 48.98873 | 2.48611 | 1407 ft | 144 kts | 85° |
| 2026-05-08 20:43 | 48.98952 | 2.50109 | 1434 ft | 140 kts | 85° |
| 2026-05-08 20:43 | 48.99025 | 2.51737 | 1147 ft | 165 kts | 86° |
| 2026-05-08 20:43 | 48.99085 | 2.53384 | 852 ft | 148 kts | 83° |
| 2026-05-08 20:43 | 48.99191 | 2.54869 | 634 ft | 134 kts | 84° |
| 2026-05-08 20:44 | 48.99265 | 2.56225 | 446 ft | 124 kts | 82° |
| 2026-05-08 20:44 | 48.99344 | 2.57449 | 355 ft | 99 kts | 84° |
| 2026-05-08 20:44 | 48.99378 | 2.58117 | 354 ft | 48 kts | 86° |
| 2026-05-08 20:44 | 48.99416 | 2.58526 | 358 ft | 34 kts | 66° |
| 2026-05-08 20:45 | 48.99515 | 2.58843 | 361 ft | 32 kts | 64° |
| 2026-05-08 20:45 | 48.99567 | 2.59006 | 358 ft | 1 kts | 66° |
| 2026-05-08 20:45 | 48.99576 | 2.59037 | 359 ft | 5 kts | 67° |
| 2026-05-08 20:45 | 48.99594 | 2.59109 | 355 ft | 9 kts | 70° |
| 2026-05-08 20:46 | 48.99609 | 2.59223 | 353 ft | 13 kts | 86° |
| 2026-05-08 20:46 | 48.99616 | 2.59372 | 358 ft | 16 kts | 85° |
| 2026-05-08 20:46 | 48.99626 | 2.59550 | 359 ft | 17 kts | 85° |
| 2026-05-08 20:46 | 48.99669 | 2.59679 | 353 ft | 15 kts | 22° |
| 2026-05-08 20:47 | 48.99778 | 2.59680 | 353 ft | 17 kts | 354° |
| 2026-05-08 20:47 | 48.99907 | 2.59662 | 354 ft | 19 kts | 355° |
| 2026-05-08 20:47 | 49.00049 | 2.59647 | 356 ft | 22 kts | 356° |
| 2026-05-08 20:47 | 49.00205 | 2.59628 | 353 ft | 24 kts | 355° |
| 2026-05-08 20:48 | 49.00378 | 2.59605 | 353 ft | 25 kts | 355° |
| 2026-05-08 20:48 | 49.00523 | 2.59587 | 353 ft | 19 kts | 355° |
| 2026-05-08 20:48 | 49.00588 | 2.59579 | 353 ft | 1 kts | 355° |
| 2026-05-08 20:48 | 49.00611 | 2.59576 | 353 ft | 6 kts | 355° |
| 2026-05-08 20:49 | 49.00664 | 2.59570 | 360 ft | 10 kts | 355° |
| 2026-05-08 20:49 | 49.00742 | 2.59560 | 353 ft | 13 kts | 355° |
| 2026-05-08 20:49 | 49.00845 | 2.59548 | 353 ft | 16 kts | 355° |
| 2026-05-08 20:49 | 49.00958 | 2.59532 | 355 ft | 15 kts | 351° |
| 2026-05-08 20:50 | 49.01002 | 2.59410 | 355 ft | 16 kts | 267° |
| 2026-05-08 20:50 | 49.00992 | 2.59229 | 355 ft | 19 kts | 264° |
| 2026-05-08 20:50 | 49.00975 | 2.59041 | 356 ft | 14 kts | 255° |
| 2026-05-08 20:50 | 49.00950 | 2.58874 | 361 ft | 18 kts | 266° |
| 2026-05-08 20:51 | 49.00939 | 2.58670 | 359 ft | 21 kts | 265° |
| 2026-05-08 20:51 | 49.00927 | 2.58446 | 361 ft | 21 kts | 265° |
| 2026-05-08 20:51 | 49.00916 | 2.58242 | 355 ft | 20 kts | 265° |
| 2026-05-08 20:51 | 49.00903 | 2.58013 | 355 ft | 23 kts | 265° |
| 2026-05-08 20:52 | 49.00894 | 2.57818 | 363 ft | 0 kts | 265° |
| 2026-05-08 20:53 | 49.00892 | 2.57795 | 362 ft | 5 kts | 265° |
| 2026-05-08 20:53 | 49.00888 | 2.57719 | 358 ft | 10 kts | 265° |
| 2026-05-08 20:53 | 49.00876 | 2.57599 | 362 ft | 13 kts | 245° |
| 2026-05-08 20:54 | 49.00802 | 2.57589 | 359 ft | 11 kts | 145° |
| 2026-05-08 20:54 | 49.00734 | 2.57639 | 356 ft | 11 kts | 178° |
| 2026-05-08 20:54 | 49.00677 | 2.57598 | 355 ft | 6 kts | 199° |
| 2026-05-08 20:54 | 49.00664 | 2.57575 | 355 ft | 0 kts | 249° |